Decoded Metar for KLFK (LUFKIN in TX, USA) (IATA:LFK) | Meteo·Mobile Aviation Weather
aviador You're here:

KLFK Decoded Metar

LUFKIN in TX, USA
Report Time2019-06-27 07:53:00
UTC Time2019-06-27 08:01:55
Flight Rules vfr VFR
WindCalm
Visibility9999 m
Phenomena:N/A
Clouds:N/A
Expected CloudBase > 400 ft AGL from Temp-Dew spread
CeilingNone
Temp22°C (ISA +8)
Dew Point21°C (94% RH)
QNH1021 hPa
Density Alt1,230 ft
Elevation289 ft
Report Wrong Elevation
Raw Report
METAR KLFK 270753Z AUTO 00000KT 10SM CLR 22/21 A3014 RMK AO2 SLP201
T02170211=

Extra information for KLFK:More info

Metar Taf Metar & Taf Last 4 Metars F.Rules Stats Wind Profile Meteogram Temp Stats Airport Information Weather charts Add Link Nearby VenuesMetar ALERT Operation Metar Decoded Social comments

AIRNAV info for KLFK